Главная страница
METAR-TAF:

METAR-TAF

Аэропорты :

Белгород, Россия

широта: 50-38-36N, долгота: 036-35-24E, высота над уровнем моря: 224 м

Текущие метеонаблюдения

Эта сводка был подготовлена 27 минут назад, в 20:30 UTC
Ветер 8 Узел от северо-северо-восточный
Температура 10°C
Влажность 82%
Давление 1018 hPa
Видимость 10 км и более
Нет облачности ниже 1500 м, и нет кучево-дождевой облачности

METAR: UUOB 202030Z 03004MPS CAVOK 10/07 Q1018 R11/010060 NOSIG

Время: 23:57 (20:57 UTC)

Прогноз

Эта сводка был подготовлена 57 минут назад, в 20:00 UTC
Прогноз действительный с 20-го 21 UTC до 21-го 06 UTC
Ветер 10 Узел от северо-северо-восточный
Видимость: 5000 м
Рассеянная облачность на высоте 4000 фута
дымка

TAF: UUOB 202000Z 2021/2106 02005MPS 5000 BR BKN040

Метеонаблюдения и прогнозы для более 4000 аэропортов (сводки METAR и TAF).

Имеющиеся станции представлены на карте желтыми и красными точками.

Чтобы увидеть название станции, наведите на нее мышь.

Затем щелкните, чтобы увидеть метеонаблюдения и метеопрогнозы.

Управление картой: чтобы увеличить масштаб, щелкните зеленые кнопки с черным крестиком; чтобы уменьшить масштаб, щелкните зеленую кнопку с тире; для просмотра соседних карт щелкайте зеленые стрелки.


METAR-TAF: